Terminal Aerodrome Forecast
Issued by NWS Mt. Holly, NJ

Home | Current Version | Previous Version | Text Only | Print | Product List | Glossary On
Versions: 1 2 3 4 5 6 7 8 9 10 11 12 13 14 15 16 17 18 19 20 21 22 23 24 25
000
FTUS41 KPHI 231508 AAA
TAFPHL
TAF AMD
KPHL 231508Z 2315/2418 04008KT P6SM BKN021 OVC170
     FM231600 06008KT P6SM OVC150
     FM232000 09004KT P6SM BKN070
     FM240500 04004KT P6SM BKN050
     FM241500 08004KT P6SM SCT150=

USA.gov is the U.S. government's official web portal to all federal, state and local government web resources and services.